AirNav   Advertisement
 
 285 users online  

6CA6 Eagle Ridge Ranch Airport
Railroad Flat, California, USA

GOING TO RAILROAD FLAT?


FAA INFORMATION EFFECTIVE 14 SEPTEMBER 2017

Location

FAA Identifier: 6CA6
Lat/Long: 38-19-39.6920N / 120-28-37.7270W
38-19.661533N / 120-28.628783W
38.3276922 / -120.4771464
(estimated)
Elevation: 2870 ft. / 875 m (estimated)
Variation: 16E (1985)
From city: 2 miles SE of RAILROAD FLAT, CA
Time zone: UTC -7 (UTC -8 during Standard Time)
Zip code: 95246

Airport Operations

Airport use: Private use. Permission required prior to landing
Activation date: 08/1990
Control tower: no
ARTCC: OAKLAND CENTER
FSS: RANCHO MURIETA FLIGHT SERVICE STATION
Attendance: UNATNDD
Wind indicator: yes
Segmented circle: no

Airport Communications

WX AWOS-3P at CPU (14 nm SW): 118.525 (209-736-2523)
WX AWOS-3 at JAQ (15 nm W): 121.125 (209-257-1292)
WX AWOS-3 at O22 (18 nm S): 124.65 (209-536-9384)

Nearby radio navigation aids

VOR radial/distance  VOR name  Freq  Var
HNWr135/27.0HANGTOWN VOR/DME115.5017E
LINr042/29.1LINDEN VOR/DME114.8017E

Airport Services

Runway Information

Runway 8/26

Dimensions: 4000 x 33 ft. / 1219 x 10 m
Surface: asphalt/gravel
1500 FT ASPH; 2500 FT GRAVEL.
RUNWAY 8  RUNWAY 26
Traffic pattern: leftleft
Obstructions: none180 ft. trees, 3000 ft. from runway

Airport Ownership and Management from official FAA records

Ownership: Privately-owned
Owner: KENNETH L. WAGNER, JR.
1599 TOP DOLLAR RD, PO BOX 549
RAILROAD FLAT, CA 95248
Phone 209-293-1375
Manager: KENNETH L. WAGNER, JR.
1599 TOP DOLLAR RD, PO BOX 549
RAILROAD FLAT, CA 95248
Phone 209-293-1375

Airport Operational Statistics

Aircraft based on the field: 1
Multi engine airplanes: 1
    

Instrument Procedures

There are no published instrument procedures at 6CA6.

Some nearby airports with instrument procedures:

KCPU - Calaveras County Airport - Maury Rasmussen Field (14 nm SW)
KJAQ - Westover Field / Amador County Airport (15 nm W)
O22 - Columbia Airport (18 nm S)
KPVF - Placerville Airport (27 nm NW)
E45 - Pine Mountain Lake Airport (31 nm SE)
 
Loc | Ops | Rwys | IFR | FBO | Links
Com | Nav | Svcs | Stats | Notes


 
Area around 6CA6 (Eagle Ridge Ranch Airport)
 
Road maps at: MapQuest Bing Google
 
Aerial photo
No photo
 
Sectional chart

 
Airport distance calculator
Flying to Eagle Ridge Ranch Airport? Find the distance to fly.

From to 6CA6

Sunrise and sunset
Times for 24-Sep-2017
 Local
(UTC-7)
 Zulu
(UTC)
Morning civil twilight06:2613:26
Sunrise06:5213:52
Sunset18:5501:55
Evening civil twilight19:2202:22

Current date and time
Zulu (UTC)  24-Sep-2017 07:20:37
Local (UTC-7)  24-Sep-2017 00:20:37
 
METAR
KCPU 
14nm SW 
240655Z AUTO 00000KT 10SM CLR 12/01 A2991 RMK AO2 T01190005
KJAQ 
15nm W 
240655Z AUTO 16003KT 10SM CLR 14/00 A2990 RMK AO1 T01401003
KO22 
18nm S 
240655Z AUTO 10SM CLR 09/02 A2995 RMK AO1
TAF
KMHR 
40nm W 
240535Z 2406/2506 VRB05KT P6SM SKC FM241800 34008KT P6SM SKC AMD NOT SKED
KTVL 
41nm NE 
240520Z 2406/2506 VRB03KT P6SM SKC FM241800 04007KT P6SM FEW050 FM250000 VRB03KT P6SM SKC
KSCK 
44nm SW 
240535Z 2406/2506 VRB05KT P6SM SKC FM241800 32008KT P6SM SKC
KSAC 
49nm W 
240535Z 2406/2506 30005KT P6SM SKC FM242100 34009G15KT P6SM SKC
NOTAMs
Click for the latest NOTAMs
NOTAMs are issued by the DoD/FAA and will open in a separate window not controlled by AirNav.

 

 
 

Would you like to see your business listed on this page?

 If your business provides an interesting product or service to pilots, flight crews, aircraft, or users of the Eagle Ridge Ranch Airport, you should consider listing it here.  To start the listing process, click on the button below
 
Add a business
 

Other Pages about Eagle Ridge Ranch Airport

Update a link
 
Copyright © AirNav, LLC. All rights reserved. Privacy Policy  Contact